Metar GG30 METAR message from awiacja.imgw.pl Metar G30 EPWA METAR EPWA 201530Z 17003KT 9999 SCT040 04/M00 Q1021 NOSIG=